createdAt,value
2022-08-07T00:00:24.972Z,1.00
2022-08-07T00:02:53.467Z,1.00
2022-08-07T00:05:20.714Z,1.00
2022-08-07T00:07:50.701Z,1.00
2022-08-07T00:10:29.645Z,1.00
2022-08-07T00:13:00.173Z,1.00
2022-08-07T00:15:38.170Z,1.00
2022-08-07T00:18:18.930Z,1.00
2022-08-07T00:20:47.748Z,1.00
2022-08-07T00:23:14.893Z,1.00
2022-08-07T00:25:45.789Z,1.00
2022-08-07T00:28:22.018Z,1.00
2022-08-07T00:30:48.762Z,1.00
2022-08-07T00:33:15.532Z,1.00
2022-08-07T00:35:45.400Z,1.00
2022-08-07T00:38:15.758Z,1.00
2022-08-07T00:40:58.251Z,1.00
2022-08-07T00:43:59.418Z,1.00
2022-08-07T00:46:11.396Z,1.00
2022-08-07T00:48:42.372Z,1.00
2022-08-07T00:51:09.210Z,1.00
2022-08-07T00:53:38.918Z,1.00
2022-08-07T00:56:17.221Z,1.00
2022-08-07T00:58:47.146Z,1.00
2022-08-07T01:01:16.301Z,1.00
2022-08-07T01:03:56.508Z,1.00
2022-08-07T01:06:27.492Z,1.00
2022-08-07T01:08:55.637Z,1.00
2022-08-07T01:12:09.584Z,1.00
2022-08-07T01:14:09.656Z,1.00
2022-08-07T01:16:36.944Z,1.00
2022-08-07T01:19:04.628Z,1.00
2022-08-07T01:21:41.434Z,1.00
2022-08-07T01:24:09.726Z,1.00
2022-08-07T01:26:36.703Z,1.00
2022-08-07T01:29:03.846Z,1.00
2022-08-07T01:31:42.526Z,1.00
2022-08-07T01:34:14.218Z,1.00
2022-08-07T01:36:40.888Z,1.00
2022-08-07T01:39:10.285Z,29.70
2022-08-07T01:41:38.057Z,23.90
2022-08-07T01:44:05.124Z,7.10
2022-08-07T01:46:31.693Z,1.00
2022-08-07T01:48:59.991Z,1.00
2022-08-07T01:52:04.109Z,1.00
2022-08-07T01:54:33.146Z,1.00
2022-08-07T01:58:00.971Z,1.00
2022-08-07T02:00:13.037Z,1.00
2022-08-07T02:03:19.248Z,1.00
2022-08-07T02:05:59.470Z,1.00
2022-08-07T02:08:26.760Z,1.00
2022-08-07T02:10:55.125Z,1.00
2022-08-07T02:13:46.991Z,1.00
2022-08-07T02:16:12.013Z,1.00
2022-08-07T02:18:46.889Z,1.00
2022-08-07T02:21:16.295Z,1.00
2022-08-07T02:23:43.238Z,1.00
2022-08-07T02:26:33.082Z,1.00
2022-08-07T02:28:57.923Z,1.00
2022-08-07T02:31:28.682Z,1.00
2022-08-07T02:34:03.135Z,1.00
2022-08-07T02:36:33.163Z,1.00
2022-08-07T02:39:01.232Z,1.00
2022-08-07T02:41:33.657Z,1.00
2022-08-07T02:44:04.102Z,1.00
2022-08-07T02:46:31.744Z,1.00
2022-08-07T02:48:58.365Z,1.00
2022-08-07T02:51:41.872Z,1.00
2022-08-07T02:54:09.580Z,1.00
2022-08-07T02:56:36.157Z,1.00
2022-08-07T02:59:03.924Z,1.00
2022-08-07T03:01:35.791Z,1.00
2022-08-07T03:04:07.616Z,1.00
2022-08-07T03:06:38.907Z,1.00
2022-08-07T03:09:05.843Z,1.00
2022-08-07T03:11:32.987Z,1.00
2022-08-07T03:14:06.049Z,1.00
2022-08-07T03:16:32.867Z,10.50
2022-08-07T03:18:59.722Z,42.00
2022-08-07T03:21:27.811Z,50.50
2022-08-07T03:24:19.927Z,84.50
2022-08-07T03:26:51.043Z,99.90
2022-08-07T03:29:24.670Z,99.90
2022-08-07T03:31:54.266Z,99.90
2022-08-07T03:34:22.859Z,99.90
2022-08-07T03:36:53.906Z,99.90
2022-08-07T03:39:46.405Z,99.90
2022-08-07T03:42:07.280Z,99.90
2022-08-07T03:44:35.770Z,99.90
2022-08-07T03:47:13.362Z,99.90
2022-08-07T03:49:41.644Z,99.90
2022-08-07T03:52:22.283Z,99.90
2022-08-07T03:54:54.776Z,99.90
2022-08-07T03:58:34.082Z,99.90
2022-08-07T04:00:12.083Z,99.90
2022-08-07T04:02:41.175Z,99.90
2022-08-07T04:05:08.144Z,99.90
2022-08-07T04:07:36.197Z,99.90
2022-08-07T04:10:15.657Z,99.90
2022-08-07T04:12:45.843Z,99.90
2022-08-07T04:15:13.885Z,99.90
2022-08-07T04:18:30.964Z,99.90
2022-08-07T04:20:29.044Z,1.00
2022-08-07T04:23:01.172Z,1.00
2022-08-07T04:25:29.325Z,1.00
2022-08-07T04:27:59.347Z,1.00
2022-08-07T04:30:39.473Z,1.00
2022-08-07T04:33:11.422Z,99.90
2022-08-07T04:35:42.172Z,99.90
2022-08-07T04:38:09.022Z,99.90
2022-08-07T04:40:44.113Z,99.90
2022-08-07T04:43:19.747Z,99.90
2022-08-07T04:46:00.968Z,99.90
2022-08-07T04:48:44.705Z,99.90
2022-08-07T04:51:15.341Z,99.90
2022-08-07T04:54:05.683Z,99.90
2022-08-07T04:58:10.443Z,99.90
2022-08-07T05:00:14.184Z,99.90
2022-08-07T05:02:37.972Z,99.90
2022-08-07T05:05:51.709Z,99.90
2022-08-07T05:08:00.737Z,99.90
2022-08-07T05:10:35.245Z,99.90
2022-08-07T05:14:44.362Z,99.90
2022-08-07T05:15:51.160Z,99.90
2022-08-07T05:18:23.940Z,99.90
2022-08-07T05:20:51.049Z,99.90
2022-08-07T05:23:20.143Z,99.90
2022-08-07T05:26:13.770Z,99.90
2022-08-07T05:28:48.406Z,99.90
2022-08-07T05:31:17.527Z,99.90
2022-08-07T05:34:00.993Z,99.90
2022-08-07T05:36:32.135Z,99.90
2022-08-07T05:40:05.793Z,99.90
2022-08-07T05:42:02.613Z,99.90
2022-08-07T05:44:30.521Z,99.90
2022-08-07T05:46:57.098Z,99.90
2022-08-07T05:49:23.713Z,99.90
2022-08-07T05:51:50.288Z,99.90
2022-08-07T05:54:44.642Z,99.90
2022-08-07T05:57:03.598Z,99.90
2022-08-07T05:59:30.229Z,99.90
2022-08-07T06:02:16.833Z,99.90
2022-08-07T06:04:50.804Z,99.90
2022-08-07T06:07:23.084Z,99.90
2022-08-07T06:10:06.107Z,99.90
2022-08-07T06:12:37.876Z,99.90
2022-08-07T06:15:06.094Z,99.90
2022-08-07T06:17:37.953Z,99.90
2022-08-07T06:20:05.550Z,99.90
2022-08-07T06:22:36.874Z,99.90
2022-08-07T06:25:06.236Z,99.90
2022-08-07T06:27:44.045Z,99.90
2022-08-07T06:30:24.230Z,99.90
2022-08-07T06:33:03.739Z,99.90
2022-08-07T06:35:30.700Z,99.90
2022-08-07T06:38:19.316Z,99.90
2022-08-07T06:40:49.810Z,99.90
2022-08-07T06:43:21.601Z,99.90
2022-08-07T06:45:49.117Z,99.90
2022-08-07T06:48:15.718Z,99.90
2022-08-07T06:50:51.480Z,99.90
2022-08-07T06:53:18.809Z,99.90
2022-08-07T06:56:07.590Z,99.90
2022-08-07T07:00:14.547Z,99.90
2022-08-07T07:01:33.177Z,99.90
2022-08-07T07:04:28.450Z,99.90
2022-08-07T07:07:01.090Z,99.90
2022-08-07T07:09:31.352Z,99.90
2022-08-07T07:12:19.670Z,99.90
2022-08-07T07:14:55.788Z,99.90
2022-08-07T07:17:28.813Z,99.90
2022-08-07T07:20:10.514Z,99.90
2022-08-07T07:24:06.609Z,99.90
2022-08-07T07:26:34.318Z,99.90
2022-08-07T07:28:42.422Z,99.90
2022-08-07T07:31:17.347Z,99.90
2022-08-07T07:33:54.900Z,99.90
2022-08-07T07:36:23.622Z,99.90
2022-08-07T07:38:59.798Z,99.90
2022-08-07T07:41:30.886Z,99.90
2022-08-07T07:44:17.258Z,99.90
2022-08-07T07:46:55.877Z,99.90
2022-08-07T07:50:32.477Z,99.90
2022-08-07T07:52:16.391Z,99.90
2022-08-07T07:54:50.757Z,99.90
2022-08-07T07:57:21.049Z,99.90
2022-08-07T08:00:09.189Z,99.90
2022-08-07T08:02:36.072Z,99.90
2022-08-07T08:05:03.147Z,99.90
2022-08-07T08:07:35.818Z,99.90
2022-08-07T08:10:09.045Z,99.90
2022-08-07T08:12:59.129Z,99.90
2022-08-07T08:15:26.926Z,99.90
2022-08-07T08:18:18.074Z,99.90
2022-08-07T08:20:47.870Z,99.90
2022-08-07T08:23:35.355Z,99.90
2022-08-07T08:26:20.866Z,99.90
2022-08-07T08:28:50.060Z,99.90
2022-08-07T08:31:30.160Z,99.90
2022-08-07T08:34:19.012Z,99.90
2022-08-07T08:36:57.675Z,99.90
2022-08-07T08:39:25.194Z,99.90
2022-08-07T08:42:09.275Z,99.90
2022-08-07T08:44:58.397Z,99.90
2022-08-07T08:47:26.422Z,99.90
2022-08-07T08:50:05.485Z,99.90
2022-08-07T08:52:36.295Z,99.90
2022-08-07T08:55:55.143Z,99.90
2022-08-07T08:58:45.108Z,99.90
2022-08-07T09:01:20.969Z,99.90
2022-08-07T09:03:56.743Z,99.90
2022-08-07T09:06:36.472Z,99.90
2022-08-07T09:09:09.700Z,99.90
2022-08-07T09:11:54.504Z,99.90
2022-08-07T09:14:33.084Z,99.90
2022-08-07T09:17:11.024Z,99.90
2022-08-07T09:19:52.942Z,99.90
2022-08-07T09:24:30.994Z,99.90
2022-08-07T09:25:24.337Z,99.90
2022-08-07T09:28:02.888Z,99.90
2022-08-07T09:30:32.948Z,99.90
2022-08-07T09:33:05.309Z,99.90
2022-08-07T09:36:02.674Z,99.90
2022-08-07T09:38:53.716Z,99.90
2022-08-07T09:41:24.000Z,99.90
2022-08-07T09:44:30.128Z,99.90
2022-08-07T09:47:51.624Z,99.90
2022-08-07T09:50:19.462Z,99.90
2022-08-07T09:52:51.800Z,99.90
2022-08-07T09:55:29.553Z,99.90
2022-08-07T09:58:06.641Z,99.90
2022-08-07T10:00:42.127Z,99.90
2022-08-07T10:04:06.407Z,99.90
2022-08-07T10:06:17.704Z,99.90
2022-08-07T10:08:55.410Z,99.90
2022-08-07T10:12:01.555Z,99.90
2022-08-07T10:14:30.464Z,99.90
2022-08-07T10:17:17.066Z,99.90
2022-08-07T10:20:02.180Z,99.90
2022-08-07T10:22:45.336Z,99.90
2022-08-07T10:25:24.647Z,99.90
2022-08-07T10:28:27.688Z,99.90
2022-08-07T10:30:58.693Z,99.90
2022-08-07T10:34:15.117Z,99.90
2022-08-07T10:36:29.359Z,99.90
2022-08-07T10:39:23.029Z,99.90
2022-08-07T10:42:00.382Z,99.90
2022-08-07T10:44:45.125Z,99.90
2022-08-07T10:47:54.495Z,99.90
2022-08-07T10:50:19.242Z,99.90
2022-08-07T10:52:52.862Z,99.90
2022-08-07T10:55:38.667Z,99.90
2022-08-07T10:58:10.969Z,99.90
2022-08-07T11:00:50.439Z,99.90
2022-08-07T11:03:28.096Z,99.90
2022-08-07T11:06:18.412Z,99.90
2022-08-07T11:08:51.732Z,99.90
2022-08-07T11:11:21.616Z,99.90
2022-08-07T11:14:57.132Z,99.90
2022-08-07T11:17:01.777Z,99.90
2022-08-07T11:19:38.778Z,99.90
2022-08-07T11:22:18.831Z,99.90
2022-08-07T11:24:53.796Z,99.90
2022-08-07T11:27:33.514Z,99.90
2022-08-07T11:30:18.461Z,99.90
2022-08-07T11:32:54.382Z,99.90
2022-08-07T11:35:59.549Z,99.90
2022-08-07T11:38:31.797Z,99.90
2022-08-07T11:41:08.240Z,99.90
2022-08-07T11:43:54.943Z,99.90
2022-08-07T11:46:44.507Z,99.90
2022-08-07T11:49:51.563Z,99.90
2022-08-07T11:52:16.183Z,99.90
2022-08-07T11:54:46.444Z,99.90
2022-08-07T11:58:00.092Z,99.90
2022-08-07T12:00:19.530Z,99.90
2022-08-07T12:02:55.574Z,99.90
2022-08-07T12:05:47.367Z,99.90
2022-08-07T12:08:25.801Z,99.90
2022-08-07T12:11:21.413Z,99.90
2022-08-07T12:14:02.100Z,99.90
2022-08-07T12:16:30.593Z,99.90
2022-08-07T12:18:57.446Z,99.90
2022-08-07T12:21:56.005Z,99.90
2022-08-07T12:26:03.422Z,99.90
2022-08-07T12:28:16.204Z,99.90
2022-08-07T12:30:53.085Z,99.90
2022-08-07T12:33:28.084Z,99.90
2022-08-07T12:35:59.063Z,99.90
2022-08-07T12:38:38.466Z,99.90
2022-08-07T12:41:10.269Z,99.90
2022-08-07T12:44:03.357Z,99.90
2022-08-07T12:46:39.965Z,99.90
2022-08-07T12:49:25.478Z,99.90
2022-08-07T12:52:18.255Z,99.90
2022-08-07T12:55:02.837Z,99.90
2022-08-07T12:58:01.118Z,99.90
2022-08-07T13:00:20.964Z,99.90
2022-08-07T13:03:27.483Z,99.90
2022-08-07T13:06:17.198Z,99.90
2022-08-07T13:09:00.319Z,99.90
2022-08-07T13:12:03.405Z,99.90
2022-08-07T13:14:51.431Z,99.90
2022-08-07T13:17:21.224Z,99.90
2022-08-07T13:19:52.718Z,99.90
2022-08-07T13:22:39.969Z,99.90
2022-08-07T13:25:15.404Z,99.90
2022-08-07T13:28:18.756Z,99.90
2022-08-07T13:31:06.640Z,99.90
2022-08-07T13:34:34.220Z,99.90
2022-08-07T13:36:39.748Z,99.90
2022-08-07T13:39:49.466Z,99.90
2022-08-07T13:42:06.312Z,99.90
2022-08-07T13:44:34.718Z,99.90
2022-08-07T13:47:04.775Z,99.90
2022-08-07T13:50:35.585Z,99.90
2022-08-07T13:52:31.780Z,99.90
2022-08-07T13:55:06.339Z,99.90
2022-08-07T13:57:38.027Z,99.90
2022-08-07T14:00:07.737Z,99.90
2022-08-07T14:02:49.162Z,99.90
2022-08-07T14:05:20.164Z,99.90
2022-08-07T14:08:00.707Z,99.90
2022-08-07T14:10:33.744Z,99.90
2022-08-07T14:13:09.077Z,99.90
2022-08-07T14:15:37.030Z,99.90
2022-08-07T14:18:24.284Z,99.90
2022-08-07T14:20:54.656Z,99.90
2022-08-07T14:23:58.891Z,99.90
2022-08-07T14:26:28.165Z,99.90
2022-08-07T14:29:04.303Z,99.90
2022-08-07T14:31:43.107Z,99.90
2022-08-07T14:34:27.182Z,99.90
2022-08-07T14:36:56.612Z,99.90
2022-08-07T14:40:16.779Z,99.90
2022-08-07T14:42:20.412Z,99.90
2022-08-07T14:44:59.542Z,99.90
2022-08-07T14:47:26.639Z,99.90
2022-08-07T14:49:56.940Z,99.90
2022-08-07T14:52:28.009Z,99.90
2022-08-07T14:54:55.918Z,99.90
2022-08-07T14:57:28.939Z,99.90
2022-08-07T15:00:12.253Z,99.90
2022-08-07T15:02:56.858Z,99.90
2022-08-07T15:05:23.808Z,99.90
2022-08-07T15:07:51.985Z,99.90
2022-08-07T15:10:29.850Z,99.90
2022-08-07T15:13:01.039Z,99.90
2022-08-07T15:15:38.659Z,99.90
2022-08-07T15:18:14.525Z,99.90
2022-08-07T15:20:56.078Z,99.90
2022-08-07T15:25:02.927Z,99.90
2022-08-07T15:26:21.285Z,99.90
2022-08-07T15:28:56.605Z,99.90
2022-08-07T15:31:57.706Z,99.90
2022-08-07T15:34:15.095Z,99.90
2022-08-07T15:39:56.865Z,99.90
2022-08-07T15:42:43.933Z,99.90
2022-08-07T15:45:14.409Z,99.90
2022-08-07T15:51:07.929Z,99.90
2022-08-07T15:53:52.137Z,99.90
2022-08-07T15:56:24.747Z,99.90
2022-08-07T15:58:57.122Z,99.90
2022-08-07T16:01:38.359Z,99.90
2022-08-07T16:04:14.596Z,99.90
2022-08-07T16:06:57.345Z,99.90
2022-08-07T16:09:42.941Z,99.90
2022-08-07T16:12:12.031Z,99.90
2022-08-07T16:14:52.078Z,99.90
2022-08-07T16:18:02.108Z,99.90
2022-08-07T16:20:36.952Z,99.90
2022-08-07T16:23:05.370Z,99.90
2022-08-07T16:25:54.046Z,99.90
2022-08-07T16:30:05.492Z,99.90
2022-08-07T16:31:57.071Z,99.90
2022-08-07T16:34:36.394Z,99.90
2022-08-07T16:38:04.608Z,99.90
2022-08-07T16:40:28.199Z,99.90
2022-08-07T16:42:59.247Z,99.90
2022-08-07T16:46:47.196Z,99.90
2022-08-07T16:48:34.313Z,99.90
2022-08-07T16:51:54.054Z,99.90
2022-08-07T16:54:19.446Z,99.90
2022-08-07T16:56:53.346Z,99.90
2022-08-07T16:59:47.053Z,99.90
2022-08-07T17:03:04.787Z,99.90
2022-08-07T17:06:28.501Z,99.90
2022-08-07T17:08:09.182Z,99.90
2022-08-07T17:10:38.695Z,99.90
2022-08-07T17:13:41.428Z,99.90
2022-08-07T17:16:22.391Z,99.90
2022-08-07T17:18:51.711Z,99.90
2022-08-07T17:21:22.769Z,99.90
2022-08-07T17:24:16.103Z,99.90
2022-08-07T17:26:59.759Z,99.90
2022-08-07T17:30:14.631Z,99.90
2022-08-07T17:32:51.863Z,99.90
2022-08-07T17:35:54.799Z,99.90
2022-08-07T17:38:34.245Z,99.90
2022-08-07T17:42:00.698Z,99.90
2022-08-07T17:44:02.320Z,99.90
2022-08-07T17:46:37.894Z,99.90
2022-08-07T17:49:23.820Z,99.90
2022-08-07T17:52:00.861Z,99.90
2022-08-07T17:54:53.870Z,99.90
2022-08-07T17:57:25.023Z,99.90
2022-08-07T18:00:14.025Z,99.90
2022-08-07T18:03:00.855Z,99.90
2022-08-07T18:06:01.813Z,99.90
2022-08-07T18:08:31.025Z,99.90
2022-08-07T18:12:17.545Z,99.90
2022-08-07T18:13:54.383Z,99.90
2022-08-07T18:16:35.029Z,99.90
2022-08-07T18:21:10.311Z,99.90
2022-08-07T18:22:14.839Z,99.90
2022-08-07T18:24:43.681Z,99.90
2022-08-07T18:27:38.187Z,99.90
2022-08-07T18:30:31.691Z,99.90
2022-08-07T18:33:12.170Z,99.90
2022-08-07T18:35:53.634Z,99.90
2022-08-07T18:38:55.246Z,99.90
2022-08-07T18:41:44.619Z,99.90
2022-08-07T18:44:31.572Z,99.90
2022-08-07T18:47:01.540Z,99.90
2022-08-07T18:50:31.269Z,99.90
2022-08-07T18:52:53.988Z,99.90
2022-08-07T18:55:42.319Z,99.90
2022-08-07T18:58:38.249Z,99.90
2022-08-07T19:01:06.091Z,99.90
2022-08-07T19:03:37.930Z,99.90
2022-08-07T19:06:05.271Z,99.90
2022-08-07T19:08:41.696Z,99.90
2022-08-07T19:11:35.875Z,99.90
2022-08-07T19:14:08.164Z,99.90
2022-08-07T19:17:07.765Z,99.90
2022-08-07T19:19:48.985Z,99.90
2022-08-07T19:22:31.150Z,99.90
2022-08-07T19:24:58.744Z,99.90
2022-08-07T19:28:29.075Z,99.90
2022-08-07T19:31:05.189Z,99.90
2022-08-07T19:33:10.198Z,99.90
2022-08-07T19:35:40.111Z,99.90
2022-08-07T19:38:17.031Z,99.90
2022-08-07T19:40:50.370Z,99.90
2022-08-07T19:43:43.933Z,99.90
2022-08-07T19:46:16.105Z,99.90
2022-08-07T19:48:54.076Z,99.90
2022-08-07T19:51:24.249Z,99.90
2022-08-07T19:54:32.757Z,99.90
2022-08-07T19:57:51.327Z,99.90
2022-08-07T19:59:42.659Z,99.90
2022-08-07T20:02:15.303Z,99.90
2022-08-07T20:04:48.899Z,99.90
2022-08-07T20:07:23.884Z,99.90
2022-08-07T20:10:37.168Z,99.90
2022-08-07T20:12:50.437Z,99.90
2022-08-07T20:15:21.852Z,99.90
2022-08-07T20:18:01.360Z,99.90
2022-08-07T20:20:30.807Z,99.90
2022-08-07T20:22:59.921Z,99.90
2022-08-07T20:25:27.949Z,99.90
2022-08-07T20:27:58.384Z,99.90
2022-08-07T20:30:33.135Z,99.90
2022-08-07T20:33:00.004Z,99.90
2022-08-07T20:35:36.529Z,99.90
2022-08-07T20:38:21.588Z,99.90
2022-08-07T20:40:51.467Z,99.90
2022-08-07T20:43:22.818Z,99.90
2022-08-07T20:46:25.746Z,99.90
2022-08-07T20:48:37.241Z,99.90
2022-08-07T20:51:09.701Z,99.90
2022-08-07T20:54:04.543Z,99.90
2022-08-07T20:56:25.943Z,99.90
2022-08-07T20:58:53.357Z,99.90
2022-08-07T21:01:21.844Z,99.90
2022-08-07T21:04:07.564Z,99.90
2022-08-07T21:06:37.519Z,99.90
2022-08-07T21:09:13.817Z,99.90
2022-08-07T21:11:50.559Z,99.90
2022-08-07T21:14:31.812Z,99.90
2022-08-07T21:18:01.819Z,99.90
2022-08-07T21:19:51.154Z,99.90
2022-08-07T21:22:28.726Z,99.90
2022-08-07T21:25:11.682Z,99.90
2022-08-07T21:28:03.603Z,99.90
2022-08-07T21:30:44.173Z,99.90
2022-08-07T21:33:13.086Z,99.90
2022-08-07T21:36:06.793Z,99.90
2022-08-07T21:38:28.638Z,99.90
2022-08-07T21:40:58.191Z,99.90
2022-08-07T21:43:55.419Z,99.90
2022-08-07T21:46:31.792Z,99.90
2022-08-07T21:49:04.624Z,99.90
2022-08-07T21:51:54.905Z,99.90
2022-08-07T21:54:31.412Z,99.90
2022-08-07T21:57:01.028Z,99.90
2022-08-07T22:00:05.252Z,99.90
2022-08-07T22:03:05.754Z,99.90
2022-08-07T22:05:45.766Z,99.90
2022-08-07T22:08:18.410Z,99.90
2022-08-07T22:10:45.974Z,99.90
2022-08-07T22:13:13.901Z,99.90
2022-08-07T22:16:44.838Z,99.90
2022-08-07T22:18:44.730Z,99.90
2022-08-07T22:21:14.518Z,99.90
2022-08-07T22:23:59.683Z,99.90
2022-08-07T22:26:28.378Z,99.90
2022-08-07T22:28:57.832Z,99.90
2022-08-07T22:31:59.061Z,99.90
2022-08-07T22:34:35.550Z,99.90
2022-08-07T22:37:09.373Z,99.90
2022-08-07T22:39:53.096Z,99.90
2022-08-07T22:42:25.969Z,99.90
2022-08-07T22:44:58.422Z,99.90
2022-08-07T22:47:28.936Z,99.90
2022-08-07T22:50:20.736Z,99.90
2022-08-07T22:53:15.744Z,99.90
2022-08-07T22:55:43.434Z,99.90
2022-08-07T22:58:16.961Z,99.90
2022-08-07T23:01:06.216Z,99.90
2022-08-07T23:03:58.512Z,99.90
2022-08-07T23:06:41.379Z,99.90
2022-08-07T23:10:04.823Z,99.90
2022-08-07T23:12:34.883Z,99.90
2022-08-07T23:16:04.896Z,99.90
2022-08-07T23:18:16.026Z,99.90
2022-08-07T23:21:06.336Z,99.90
2022-08-07T23:24:06.858Z,99.90
2022-08-07T23:26:30.450Z,99.90
2022-08-07T23:29:16.513Z,99.90
2022-08-07T23:34:18.929Z,99.90
2022-08-07T23:35:19.880Z,99.90
2022-08-07T23:38:01.341Z,99.90
2022-08-07T23:40:34.676Z,99.90
2022-08-07T23:43:16.980Z,99.90
2022-08-07T23:46:03.302Z,99.90
2022-08-07T23:48:43.331Z,99.90
2022-08-07T23:53:01.775Z,99.90
2022-08-07T23:54:35.922Z,99.90
2022-08-07T23:57:13.202Z,99.90
